Terminal Aerodrome Forecast
Issued by NWS Milwaukee/Sullivan, WI

Home | Current Version | Previous Version | Text Only | Print | Product List | Glossary On
Versions: 1 2 3 4 5 6 7 8 9 10 11 12 13 14 15 16 17 18 19 20 21 22 23 24 25 26 27 28 29 30 31 32 33 34 35 36 37 38 39 40 41 42 43 44 45
000
FTUS43 KMKX 260520
TAFMKE
TAF
KMKE 260520Z 2606/2712 20007KT P6SM SCT035
      TEMPO 2608/2609 BKN035
     FM260900 20007KT P6SM SCT025 OVC035
     FM261500 21008KT P6SM BKN035 BKN150
     FM261900 16008KT P6SM SCT040 BKN120
     FM270400 23006KT 5SM BR SCT080 BKN150
     FM270900 23004KT 4SM BR VCSH SCT040 BKN080=

USA.gov is the U.S. government's official web portal to all federal, state and local government web resources and services.